Time;durP1;ratioP1;P1;durP2;ratioP2;P2;SDS_P1;SDS_P2;PMS_P1;PMS_P2;Temp;Humidity;BMP_temperature;BMP_pressure;BME280_temperature;BME280_humidity;BME280_pressure;Samples;Min_cycle;Max_cycle;Signal;HPM_P1;HPM_P2
2021/06/02 00:02:06;;;;;;;6.55;4.85;;;;;;;;;;5070827;28;20021;-65
2021/06/02 00:04:33;;;;;;;5.75;4.90;;;;;;;;;;5072170;28;20020;-64
2021/06/02 00:06:59;;;;;;;5.68;4.35;;;;;;;;;;5068065;28;20411;-65
2021/06/02 00:09:25;;;;;;;6.22;4.90;;;;;;;;;;5072094;28;20028;-64
2021/06/02 00:11:51;;;;;;;6.40;4.50;;;;;;;;;;5104708;28;20029;-64
2021/06/02 00:14:17;;;;;;;5.07;4.60;;;;;;;;;;5072198;28;20013;-64
2021/06/02 00:16:42;;;;;;;6.90;4.05;;;;;;;;;;5069402;28;20024;-64
2021/06/02 00:19:08;;;;;;;8.25;5.18;;;;;;;;;;5074434;28;20490;-64
2021/06/02 00:21:34;;;;;;;7.18;5.07;;;;;;;;;;5072209;28;20388;-64
2021/06/02 00:23:59;;;;;;;5.28;4.45;;;;;;;;;;5070188;28;20035;-64
2021/06/02 00:26:24;;;;;;;6.40;4.35;;;;;;;;;;5071579;28;20027;-64
2021/06/02 00:28:49;;;;;;;5.60;4.07;;;;;;;;;;5069444;28;20473;-64
2021/06/02 00:31:15;;;;;;;5.00;4.50;;;;;;;;;;5072353;28;20067;-64
2021/06/02 00:33:40;;;;;;;8.43;5.70;;;;;;;;;;5071284;28;20031;-64
2021/06/02 00:36:06;;;;;;;6.95;5.10;;;;;;;;;;5072209;28;20016;-64
2021/06/02 00:38:32;;;;;;;7.85;5.20;;;;;;;;;;5068640;28;20065;-62
2021/06/02 00:40:58;;;;;;;5.00;4.50;;;;;;;;;;5071726;28;20025;-64
2021/06/02 00:43:23;;;;;;;6.63;5.13;;;;;;;;;;5071753;28;20028;-64
2021/06/02 00:45:49;;;;;;;8.35;5.05;;;;;;;;;;5070902;28;20455;-64
2021/06/02 00:48:17;;;;;;;5.68;5.05;;;;;;;;;;5068907;28;20028;-64
2021/06/02 00:50:46;;;;;;;10.20;5.70;;;;;;;;;;5071834;28;20040;-64
2021/06/02 00:53:12;;;;;;;6.93;5.68;;;;;;;;;;5071183;28;20032;-63
2021/06/02 00:55:37;;;;;;;5.85;5.20;;;;;;;;;;5071686;28;20028;-64
2021/06/02 00:58:05;;;;;;;6.55;5.40;;;;;;;;;;5068560;28;20028;-64
2021/06/02 01:00:30;;;;;;;7.75;5.53;;;;;;;;;;5063941;28;20123;-64
2021/06/02 01:02:56;;;;;;;9.27;5.30;;;;;;;;;;5069273;28;20104;-64
2021/06/02 01:05:23;;;;;;;6.35;5.28;;;;;;;;;;5071875;28;20017;-64
2021/06/02 01:07:49;;;;;;;6.85;4.88;;;;;;;;;;5066443;28;20035;-64
2021/06/02 01:10:15;;;;;;;8.40;5.13;;;;;;;;;;5069931;28;20126;-64
2021/06/02 01:12:41;;;;;;;5.28;4.78;;;;;;;;;;5071027;28;20091;-64
2021/06/02 01:15:07;;;;;;;7.43;5.47;;;;;;;;;;5070603;28;20147;-64
2021/06/02 01:17:33;;;;;;;6.95;5.00;;;;;;;;;;5068511;28;20450;-64
2021/06/02 01:19:59;;;;;;;7.40;4.93;;;;;;;;;;5075373;28;20020;-64
2021/06/02 01:22:27;;;;;;;6.05;4.85;;;;;;;;;;5070906;28;20376;-64
2021/06/02 01:24:52;;;;;;;8.13;5.28;;;;;;;;;;5103387;28;20020;-64
2021/06/02 01:27:17;;;;;;;5.82;4.80;;;;;;;;;;5066927;28;20020;-64
2021/06/02 01:29:47;;;;;;;8.15;5.22;;;;;;;;;;5074976;28;20089;-64
2021/06/02 01:32:21;;;;;;;5.45;4.95;;;;;;;;;;5074537;28;20045;-64
2021/06/02 01:34:55;;;;;;;6.13;5.00;;;;;;;;;;5074705;28;20020;-64
2021/06/02 01:37:39;;;;;;;7.30;4.97;;;;;;;;;;5071995;28;20476;-64
2021/06/02 01:40:23;;;;;;;5.93;4.53;;;;;;;;;;5075219;28;20110;-64
2021/06/02 01:42:57;;;;;;;5.22;4.70;;;;;;;;;;5074760;28;20024;-64
2021/06/02 01:45:42;;;;;;;5.78;5.13;;;;;;;;;;5074771;28;20028;-65
2021/06/02 01:48:27;;;;;;;6.47;4.88;;;;;;;;;;5071941;28;20099;-64
2021/06/02 01:51:08;;;;;;;9.05;6.13;;;;;;;;;;5073895;28;20025;-64
2021/06/02 01:53:47;;;;;;;7.50;6.13;;;;;;;;;;5074372;28;20016;-64
2021/06/02 01:56:31;;;;;;;9.32;5.78;;;;;;;;;;5054717;28;20024;-64
2021/06/02 01:59:15;;;;;;;8.40;5.25;;;;;;;;;;5072450;28;20063;-64
2021/06/02 02:02:02;;;;;;;5.90;5.32;;;;;;;;;;5073074;28;20051;-64
2021/06/02 02:04:33;;;;;;;6.50;5.43;;;;;;;;;;5059781;28;20016;-64
2021/06/02 02:07:07;;;;;;;6.35;5.35;;;;;;;;;;5071542;28;20012;-64
2021/06/02 02:09:38;;;;;;;8.20;5.47;;;;;;;;;;5074569;28;20278;-64
2021/06/02 02:12:15;;;;;;;7.93;5.63;;;;;;;;;;5074437;28;20371;-64
2021/06/02 02:14:50;;;;;;;5.90;5.15;;;;;;;;;;5070100;28;20016;-64
2021/06/02 02:17:15;;;;;;;9.75;5.32;;;;;;;;;;5071190;28;20225;-63
2021/06/02 02:19:49;;;;;;;7.93;5.25;;;;;;;;;;5073719;28;20170;-63
2021/06/02 02:22:33;;;;;;;6.18;5.40;;;;;;;;;;5074281;28;20024;-63
2021/06/02 02:25:01;;;;;;;6.32;4.70;;;;;;;;;;5072957;28;20029;-63
2021/06/02 02:27:35;;;;;;;6.85;5.07;;;;;;;;;;5069461;28;20146;-63
2021/06/02 02:30:19;;;;;;;8.88;6.13;;;;;;;;;;5074361;28;20031;-63
2021/06/02 02:32:48;;;;;;;7.82;5.38;;;;;;;;;;5072766;28;20036;-63
2021/06/02 02:35:25;;;;;;;8.23;5.35;;;;;;;;;;5073546;28;20032;-63
2021/06/02 02:38:09;;;;;;;7.18;5.18;;;;;;;;;;5070203;28;20021;-63
2021/06/02 02:40:55;;;;;;;7.55;5.50;;;;;;;;;;5073495;28;20070;-63
2021/06/02 02:43:27;;;;;;;8.23;5.88;;;;;;;;;;5060364;28;20045;-63
2021/06/02 02:46:08;;;;;;;10.98;5.72;;;;;;;;;;5072877;28;20522;-63
2021/06/02 02:48:38;;;;;;;6.05;5.28;;;;;;;;;;5070712;28;20046;-63
2021/06/02 02:51:12;;;;;;;8.02;6.07;;;;;;;;;;5073778;28;20186;-63
2021/06/02 02:53:49;;;;;;;7.35;5.75;;;;;;;;;;5073490;28;20025;-63
2021/06/02 02:56:24;;;;;;;7.03;5.35;;;;;;;;;;5071876;28;20085;-63
2021/06/02 02:58:56;;;;;;;7.20;4.95;;;;;;;;;;5069181;28;20024;-63
2021/06/02 03:01:24;;;;;;;8.77;6.38;;;;;;;;;;5072232;28;20020;-63
2021/06/02 03:03:55;;;;;;;6.95;5.65;;;;;;;;;;5073664;28;20470;-63
2021/06/02 03:06:33;;;;;;;8.30;5.60;;;;;;;;;;5054566;28;20456;-63
2021/06/02 03:09:14;;;;;;;7.43;5.72;;;;;;;;;;5071853;28;20028;-63
2021/06/02 03:11:52;;;;;;;8.20;5.75;;;;;;;;;;5072032;28;20105;-63
2021/06/02 03:14:21;;;;;;;7.60;5.35;;;;;;;;;;5072574;28;20020;-63
2021/06/02 03:16:57;;;;;;;7.15;5.60;;;;;;;;;;5070245;28;20024;-63
2021/06/02 03:19:48;;;;;;;7.90;5.97;;;;;;;;;;5077590;28;20154;-63
2021/06/02 03:22:17;;;;;;;9.02;6.25;;;;;;;;;;5074561;28;20749;-63
2021/06/02 03:25:03;;;;;;;8.88;6.13;;;;;;;;;;5072458;28;20033;-62
2021/06/02 03:27:32;;;;;;;7.20;5.90;;;;;;;;;;5069976;28;20096;-62
2021/06/02 03:29:58;;;;;;;12.73;6.05;;;;;;;;;;5073103;28;20020;-63
2021/06/02 03:32:43;;;;;;;7.20;5.30;;;;;;;;;;5072460;28;20027;-63
2021/06/02 03:35:08;;;;;;;;;;;;;;;;;;5063148;28;20221;-63
2021/06/02 03:37:52;;;;;;;7.22;6.00;;;;;;;;;;5069349;28;20033;-63
2021/06/02 03:40:36;;;;;;;6.78;5.47;;;;;;;;;;5072555;28;20024;-63
2021/06/02 03:43:06;;;;;;;4.60;3.90;;;;;;;;;;5068084;28;20020;-63
2021/06/02 03:45:37;;;;;;;5.72;4.55;;;;;;;;;;5072668;28;20108;-64
2021/06/02 03:48:18;;;;;;;6.88;4.63;;;;;;;;;;5069426;28;20059;-63
2021/06/02 03:51:01;;;;;;;5.88;4.60;;;;;;;;;;5070025;28;20308;-63
2021/06/02 03:53:45;;;;;;;6.72;4.75;;;;;;;;;;5071982;28;20021;-63
2021/06/02 03:56:10;;;;;;;5.55;4.18;;;;;;;;;;5070862;28;20079;-64
2021/06/02 03:58:47;;;;;;;6.18;4.72;;;;;;;;;;5069015;28;20476;-63
2021/06/02 04:01:32;;;;;;;4.97;4.07;;;;;;;;;;5071343;28;20578;-63
2021/06/02 04:03:57;;;;;;;;;;;;;;;;;;5073098;28;20021;-64
2021/06/02 04:06:41;;;;;;;6.65;4.53;;;;;;;;;;5072674;28;20344;-63
2021/06/02 04:09:20;;;;;;;5.80;3.85;;;;;;;;;;5069843;28;20016;-63
2021/06/02 04:11:56;;;;;;;7.00;4.43;;;;;;;;;;5072155;28;20414;-63
2021/06/02 04:14:31;;;;;;;6.50;4.40;;;;;;;;;;5072450;28;20027;-63
2021/06/02 04:16:57;;;;;;;4.20;3.25;;;;;;;;;;5070189;28;20004;-63
2021/06/02 04:19:22;;;;;;;5.57;3.60;;;;;;;;;;5072333;28;20017;-64
2021/06/02 04:21:48;;;;;;;4.03;3.50;;;;;;;;;;5080084;28;20077;-64
2021/06/02 04:24:14;;;;;;;5.07;4.03;;;;;;;;;;5072265;28;20021;-64
2021/06/02 04:26:40;;;;;;;4.68;3.45;;;;;;;;;;5069140;28;20490;-64
2021/06/02 04:29:08;;;;;;;3.90;3.50;;;;;;;;;;5084413;28;20118;-64
2021/06/02 04:31:34;;;;;;;5.13;3.65;;;;;;;;;;5070823;28;20024;-64
2021/06/02 04:34:02;;;;;;;6.63;3.28;;;;;;;;;;5071727;28;20563;-64
2021/06/02 04:36:28;;;;;;;4.20;3.80;;;;;;;;;;5071037;28;20012;-64
2021/06/02 04:38:55;;;;;;;6.88;3.40;;;;;;;;;;5102288;28;20526;-64
2021/06/02 04:41:24;;;;;;;3.88;2.97;;;;;;;;;;5072228;28;20012;-63
2021/06/02 04:43:50;;;;;;;6.60;3.25;;;;;;;;;;5071972;28;20500;-63
2021/06/02 04:46:17;;;;;;;4.18;2.70;;;;;;;;;;5071624;28;20070;-63
2021/06/02 04:48:42;;;;;;;5.45;3.40;;;;;;;;;;5068746;28;20013;-64
2021/06/02 04:51:10;;;;;;;6.47;3.33;;;;;;;;;;5072039;28;20074;-64
2021/06/02 04:53:39;;;;;;;4.05;3.00;;;;;;;;;;5071618;28;20065;-64
2021/06/02 04:56:40;;;;;;;5.88;3.63;;;;;;;;;;5071953;28;20504;-63
2021/06/02 04:59:05;;;;;;;5.45;2.65;;;;;;;;;;5064049;28;20036;-63
2021/06/02 05:01:49;;;;;;;5.47;2.70;;;;;;;;;;5069638;28;20040;-63
2021/06/02 05:04:33;;;;;;;3.65;2.40;;;;;;;;;;5073825;28;20621;-63
2021/06/02 05:07:13;;;;;;;6.13;2.20;;;;;;;;;;5061600;28;20039;-63
2021/06/02 05:09:38;;;;;;;6.65;3.05;;;;;;;;;;5073121;28;20028;-64
2021/06/02 05:12:18;;;;;;;4.03;2.25;;;;;;;;;;5056862;28;20017;-63
2021/06/02 05:14:46;;;;;;;6.25;2.20;;;;;;;;;;5055867;28;20147;-64
2021/06/02 05:17:12;;;;;;;4.53;2.13;;;;;;;;;;5071017;28;20028;-64
2021/06/02 05:19:58;;;;;;;5.68;1.95;;;;;;;;;;5055721;28;20031;-64
2021/06/02 05:22:26;;;;;;;5.25;2.05;;;;;;;;;;5053456;28;20576;-63
2021/06/02 05:24:51;;;;;;;6.90;2.33;;;;;;;;;;5071526;28;20453;-63
2021/06/02 05:27:39;;;;;;;5.85;2.03;;;;;;;;;;5070929;28;20036;-63
2021/06/02 05:30:06;;;;;;;5.95;1.60;;;;;;;;;;5013159;28;20037;-63
2021/06/02 05:32:50;;;;;;;5.50;2.05;;;;;;;;;;5012235;28;20065;-62
2021/06/02 05:35:42;;;;;;;3.92;2.13;;;;;;;;;;5012347;28;20220;-63
2021/06/02 05:38:07;;;;;;;5.53;1.92;;;;;;;;;;5017577;28;20037;-63
2021/06/02 05:40:41;;;;;;;5.93;1.63;;;;;;;;;;5020688;28;20026;-63
2021/06/02 05:43:21;;;;;;;4.37;1.53;;;;;;;;;;5035896;28;20028;-64
2021/06/02 05:46:05;;;;;;;6.78;1.60;;;;;;;;;;5012838;28;20042;-63
2021/06/02 05:48:39;;;;;;;5.30;1.60;;;;;;;;;;5009222;28;20115;-64
2021/06/02 05:51:07;;;;;;;4.97;1.50;;;;;;;;;;5013199;28;20036;-64
2021/06/02 05:53:45;;;;;;;4.50;2.20;;;;;;;;;;5010597;28;20033;-64
2021/06/02 05:56:13;;;;;;;3.80;1.83;;;;;;;;;;5022427;28;20481;-62
2021/06/02 05:58:50;;;;;;;5.03;2.50;;;;;;;;;;5008035;28;20037;-63
2021/06/02 06:01:39;;;;;;;8.93;2.83;;;;;;;;;;5014055;28;20033;-65
2021/06/02 06:04:09;;;;;;;4.47;2.08;;;;;;;;;;5026780;28;20100;-64
2021/06/02 06:06:53;;;;;;;2.13;1.83;;;;;;;;;;5023231;28;20033;-63
2021/06/02 06:09:43;;;;;;;6.80;1.77;;;;;;;;;;5067245;28;20027;-63
2021/06/02 06:12:37;;;;;;;3.13;1.50;;;;;;;;;;5106980;28;20085;-63
2021/06/02 06:15:08;;;;;;;3.08;1.90;;;;;;;;;;5064858;28;20016;-63
2021/06/02 06:17:46;;;;;;;5.13;1.75;;;;;;;;;;5063001;28;20012;-63
2021/06/02 06:20:23;;;;;;;2.35;1.50;;;;;;;;;;5076697;28;20061;-62
2021/06/02 06:23:06;;;;;;;2.92;1.45;;;;;;;;;;5090633;28;20012;-62
2021/06/02 06:25:38;;;;;;;2.60;1.77;;;;;;;;;;5074446;28;20048;-62
2021/06/02 06:28:14;;;;;;;3.80;1.50;;;;;;;;;;5070378;28;20020;-63
2021/06/02 06:30:41;;;;;;;4.45;1.52;;;;;;;;;;5052933;28;20021;-64
2021/06/02 06:33:08;;;;;;;4.05;2.97;;;;;;;;;;5072517;28;20376;-63
2021/06/02 06:35:35;;;;;;;2.80;1.40;;;;;;;;;;5087713;28;20487;-63
2021/06/02 06:38:00;;;;;;;4.13;2.10;;;;;;;;;;5089232;28;20016;-64
2021/06/02 06:40:30;;;;;;;3.50;1.75;;;;;;;;;;5072487;28;20396;-64
2021/06/02 06:42:56;;;;;;;2.88;1.45;;;;;;;;;;5073555;28;20244;-63
2021/06/02 06:45:26;;;;;;;6.10;1.50;;;;;;;;;;5073977;28;20021;-63
2021/06/02 06:47:52;;;;;;;1.65;1.10;;;;;;;;;;5069919;28;20060;-64
2021/06/02 06:50:18;;;;;;;4.18;1.50;;;;;;;;;;5073702;28;20499;-64
2021/06/02 06:52:46;;;;;;;1.92;1.10;;;;;;;;;;5072785;28;20363;-63
2021/06/02 06:55:11;;;;;;;2.35;1.50;;;;;;;;;;5072098;28;20021;-63
2021/06/02 06:57:38;;;;;;;2.20;1.20;;;;;;;;;;5070365;28;20381;-63
2021/06/02 07:00:04;;;;;;;4.00;1.33;;;;;;;;;;5072097;28;20023;-63
2021/06/02 07:02:30;;;;;;;2.90;1.30;;;;;;;;;;5072054;28;20497;-63
2021/06/02 07:04:56;;;;;;;2.58;1.25;;;;;;;;;;5072596;28;20029;-63
2021/06/02 07:07:23;;;;;;;3.80;1.50;;;;;;;;;;5070281;28;20025;-64
2021/06/02 07:09:49;;;;;;;10.07;2.05;;;;;;;;;;5056948;28;20024;-64
2021/06/02 07:12:16;;;;;;;3.30;1.58;;;;;;;;;;5065636;28;20476;-64
2021/06/02 07:14:42;;;;;;;2.53;1.33;;;;;;;;;;5072881;28;20486;-64
2021/06/02 07:17:07;;;;;;;1.90;0.93;;;;;;;;;;5102943;28;20020;-64
2021/06/02 07:19:35;;;;;;;2.20;1.05;;;;;;;;;;5073298;28;20402;-64
2021/06/02 07:22:00;;;;;;;4.57;1.13;;;;;;;;;;5114111;27;20497;-64
2021/06/02 07:24:26;;;;;;;2.88;1.02;;;;;;;;;;5092162;28;20051;-64
2021/06/02 07:26:51;;;;;;;2.35;0.93;;;;;;;;;;5078357;28;20123;-64
2021/06/02 07:29:17;;;;;;;1.85;1.13;;;;;;;;;;5071656;28;20089;-63
2021/06/02 07:31:42;;;;;;;2.22;1.30;;;;;;;;;;5073035;28;20023;-63
2021/06/02 07:34:07;;;;;;;1.30;1.00;;;;;;;;;;5073376;28;20095;-64
2021/06/02 07:36:33;;;;;;;2.45;1.00;;;;;;;;;;5071980;28;20016;-64
2021/06/02 07:38:58;;;;;;;1.90;1.00;;;;;;;;;;5068750;28;20514;-64
2021/06/02 07:41:24;;;;;;;1.85;0.90;;;;;;;;;;5071031;28;20074;-64
2021/06/02 07:43:49;;;;;;;2.10;1.10;;;;;;;;;;5071706;28;20012;-63
2021/06/02 07:46:14;;;;;;;1.15;1.00;;;;;;;;;;5072953;28;20059;-64
2021/06/02 07:48:39;;;;;;;1.88;0.93;;;;;;;;;;5068522;28;20040;-64
2021/06/02 07:51:05;;;;;;;3.35;1.10;;;;;;;;;;5072881;28;20205;-64
2021/06/02 07:53:30;;;;;;;3.10;1.17;;;;;;;;;;5072750;28;20017;-64
2021/06/02 07:55:55;;;;;;;3.35;1.63;;;;;;;;;;5072325;28;20032;-64
2021/06/02 07:58:20;;;;;;;2.50;1.35;;;;;;;;;;5067812;28;20023;-64
2021/06/02 08:00:46;;;;;;;3.83;1.05;;;;;;;;;;5071325;28;20024;-64
2021/06/02 08:03:11;;;;;;;3.22;1.10;;;;;;;;;;5072656;28;20426;-64
2021/06/02 08:05:36;;;;;;;4.75;1.40;;;;;;;;;;5071683;28;20016;-64
2021/06/02 08:08:01;;;;;;;1.90;0.88;;;;;;;;;;5067946;28;20025;-62
2021/06/02 08:10:27;;;;;;;2.20;1.15;;;;;;;;;;5072232;28;20383;-62
2021/06/02 08:12:52;;;;;;;2.33;1.17;;;;;;;;;;5071286;28;20020;-63
2021/06/02 08:15:17;;;;;;;3.60;1.20;;;;;;;;;;5071095;28;20028;-63
2021/06/02 08:17:43;;;;;;;2.25;1.25;;;;;;;;;;5069349;28;20107;-63
2021/06/02 08:20:09;;;;;;;1.70;1.30;;;;;;;;;;5071538;28;20024;-63
2021/06/02 08:22:34;;;;;;;5.82;1.10;;;;;;;;;;5072050;28;20479;-63
2021/06/02 08:25:07;;;;;;;6.38;1.30;;;;;;;;;;5071102;28;20029;-63
2021/06/02 08:27:32;;;;;;;6.47;1.20;;;;;;;;;;5069902;28;20040;-63
2021/06/02 08:29:58;;;;;;;4.22;0.93;;;;;;;;;;5072394;28;20074;-63
2021/06/02 08:32:24;;;;;;;3.97;1.58;;;;;;;;;;5070315;28;20120;-63
2021/06/02 08:34:49;;;;;;;3.88;1.35;;;;;;;;;;5072109;28;20020;-63
2021/06/02 08:37:15;;;;;;;2.08;0.85;;;;;;;;;;5067263;28;20119;-63
2021/06/02 08:39:40;;;;;;;1.98;0.73;;;;;;;;;;5071591;28;20393;-63
2021/06/02 08:42:05;;;;;;;1.83;1.25;;;;;;;;;;5071506;28;20024;-63
2021/06/02 08:44:32;;;;;;;1.75;1.13;;;;;;;;;;5071361;28;20021;-64
2021/06/02 08:46:58;;;;;;;2.13;1.15;;;;;;;;;;5066988;28;20500;-64
2021/06/02 08:49:23;;;;;;;2.50;0.80;;;;;;;;;;5071683;28;20021;-64
2021/06/02 08:51:48;;;;;;;3.90;1.20;;;;;;;;;;5070137;28;20345;-63
2021/06/02 08:54:14;;;;;;;2.15;0.80;;;;;;;;;;5071308;28;20063;-64
2021/06/02 08:56:43;;;;;;;3.88;1.30;;;;;;;;;;5069489;28;20525;-64
2021/06/02 08:59:09;;;;;;;2.80;1.10;;;;;;;;;;5067988;28;20446;-64
2021/06/02 09:01:34;;;;;;;3.80;1.13;;;;;;;;;;5070358;28;20017;-64
2021/06/02 09:04:03;;;;;;;1.08;0.82;;;;;;;;;;5070967;28;20491;-64
2021/06/02 09:06:29;;;;;;;4.03;0.95;;;;;;;;;;5070608;28;20024;-64
2021/06/02 09:08:54;;;;;;;3.30;1.10;;;;;;;;;;5069283;28;20021;-64
2021/06/02 09:11:20;;;;;;;3.25;1.40;;;;;;;;;;5071623;28;20017;-64
2021/06/02 09:13:45;;;;;;;0.85;0.80;;;;;;;;;;5071837;28;20376;-64
2021/06/02 09:16:17;;;;;;;2.72;1.00;;;;;;;;;;5064142;28;20046;-64
2021/06/02 09:18:46;;;;;;;4.78;1.42;;;;;;;;;;5068332;28;20028;-64
2021/06/02 09:21:11;;;;;;;2.50;0.95;;;;;;;;;;5071697;28;20083;-64
2021/06/02 09:23:37;;;;;;;2.28;0.90;;;;;;;;;;5091862;28;20020;-64
2021/06/02 09:26:16;;;;;;;2.95;1.15;;;;;;;;;;5090596;28;20016;-64
2021/06/02 09:28:51;;;;;;;3.15;0.80;;;;;;;;;;5072409;28;20021;-64
2021/06/02 09:31:23;;;;;;;3.60;1.00;;;;;;;;;;5081204;28;20483;-63
2021/06/02 09:33:48;;;;;;;4.70;1.65;;;;;;;;;;5089106;28;20028;-64
2021/06/02 09:36:14;;;;;;;1.92;1.00;;;;;;;;;;5070344;28;20040;-64
2021/06/02 09:38:39;;;;;;;5.68;1.00;;;;;;;;;;5079985;28;20132;-64
2021/06/02 09:41:05;;;;;;;1.35;0.82;;;;;;;;;;5079481;28;20024;-64
2021/06/02 09:43:36;;;;;;;1.10;0.73;;;;;;;;;;5070919;28;20017;-64
2021/06/02 09:46:05;;;;;;;3.13;0.88;;;;;;;;;;5057833;28;20028;-65
2021/06/02 09:48:51;;;;;;;1.75;0.75;;;;;;;;;;5068060;28;20024;-65
2021/06/02 09:51:29;;;;;;;4.75;1.10;;;;;;;;;;5082227;28;20028;-62
2021/06/02 09:53:55;;;;;;;2.58;0.80;;;;;;;;;;5093280;28;20382;-63
2021/06/02 09:56:37;;;;;;;1.40;0.80;;;;;;;;;;5080783;28;20048;-64
2021/06/02 09:59:03;;;;;;;3.00;0.80;;;;;;;;;;5072579;28;20017;-65
2021/06/02 10:01:47;;;;;;;1.95;0.73;;;;;;;;;;5077977;28;20021;-63
2021/06/02 10:04:12;;;;;;;1.75;0.63;;;;;;;;;;5071339;28;20020;-64
2021/06/02 10:06:37;;;;;;;1.30;0.75;;;;;;;;;;5072946;28;20020;-64
2021/06/02 10:09:03;;;;;;;1.92;0.65;;;;;;;;;;5071946;28;20024;-64
2021/06/02 10:11:31;;;;;;;0.68;0.65;;;;;;;;;;5074165;28;20085;-64
2021/06/02 10:13:57;;;;;;;0.68;0.65;;;;;;;;;;5074635;28;20016;-64
2021/06/02 10:16:36;;;;;;;1.63;0.75;;;;;;;;;;5066573;28;20028;-64
2021/06/02 10:19:01;;;;;;;1.75;0.70;;;;;;;;;;5051763;28;20021;-64
2021/06/02 10:21:41;;;;;;;3.47;0.85;;;;;;;;;;5058977;28;20083;-64
2021/06/02 10:24:07;;;;;;;1.42;0.68;;;;;;;;;;5081137;28;20031;-64
2021/06/02 10:26:32;;;;;;;1.13;0.40;;;;;;;;;;5073293;28;20468;-64
2021/06/02 10:28:58;;;;;;;3.58;0.77;;;;;;;;;;5071612;28;20023;-64
2021/06/02 10:31:23;;;;;;;2.25;0.90;;;;;;;;;;5074432;28;20134;-64
2021/06/02 10:33:49;;;;;;;1.05;0.80;;;;;;;;;;5074050;28;20026;-64
2021/06/02 10:36:14;;;;;;;2.67;0.85;;;;;;;;;;5074353;28;20020;-64
2021/06/02 10:38:42;;;;;;;4.32;0.70;;;;;;;;;;5071670;28;20051;-64
2021/06/02 10:41:08;;;;;;;3.03;0.68;;;;;;;;;;5079680;28;20023;-64
2021/06/02 10:43:42;;;;;;;4.70;0.60;;;;;;;;;;5088317;28;20021;-64
2021/06/02 10:46:12;;;;;;;4.63;0.93;;;;;;;;;;5056509;28;20074;-64
2021/06/02 10:48:43;;;;;;;1.70;0.70;;;;;;;;;;5071877;28;20021;-64
2021/06/02 10:51:09;;;;;;;3.42;0.85;;;;;;;;;;5072815;28;20012;-64
2021/06/02 10:53:34;;;;;;;1.70;0.60;;;;;;;;;;5073507;28;20095;-64
2021/06/02 10:56:01;;;;;;;1.27;0.80;;;;;;;;;;5063800;28;20234;-64
2021/06/02 10:58:30;;;;;;;1.52;0.57;;;;;;;;;;5060510;28;20021;-64
2021/06/02 11:01:04;;;;;;;0.90;0.47;;;;;;;;;;5080958;28;20024;-64
2021/06/02 11:03:30;;;;;;;1.80;0.82;;;;;;;;;;5071383;28;20028;-64
2021/06/02 11:05:56;;;;;;;1.85;0.63;;;;;;;;;;5104583;28;20033;-63
2021/06/02 11:08:21;;;;;;;2.08;0.50;;;;;;;;;;5067998;28;20056;-64
2021/06/02 11:10:51;;;;;;;3.35;0.75;;;;;;;;;;5072714;28;20052;-64
2021/06/02 11:13:17;;;;;;;0.88;0.50;;;;;;;;;;5073274;28;20081;-64
2021/06/02 11:15:44;;;;;;;2.60;0.50;;;;;;;;;;5071723;28;20033;-64
2021/06/02 11:18:09;;;;;;;2.35;0.50;;;;;;;;;;5070002;28;20370;-64
2021/06/02 11:20:41;;;;;;;0.57;0.57;;;;;;;;;;5072674;28;20100;-64
2021/06/02 11:23:07;;;;;;;1.52;0.60;;;;;;;;;;5072770;28;20454;-64
2021/06/02 11:25:32;;;;;;;1.55;0.43;;;;;;;;;;5073072;28;20113;-64
2021/06/02 11:27:57;;;;;;;2.90;0.77;;;;;;;;;;5069857;28;20020;-64
2021/06/02 11:30:23;;;;;;;2.45;0.50;;;;;;;;;;5067520;28;20024;-63
2021/06/02 11:32:49;;;;;;;2.03;0.63;;;;;;;;;;5059495;28;20024;-64
2021/06/02 11:35:15;;;;;;;1.52;0.50;;;;;;;;;;5072343;28;20020;-64
2021/06/02 11:37:41;;;;;;;2.80;0.57;;;;;;;;;;5069913;28;20498;-64
2021/06/02 11:40:09;;;;;;;1.85;0.60;;;;;;;;;;5102295;28;20510;-64
2021/06/02 11:42:39;;;;;;;4.03;0.80;;;;;;;;;;5063235;28;20021;-64
2021/06/02 11:45:06;;;;;;;2.38;0.80;;;;;;;;;;5078575;28;20055;-64
2021/06/02 11:47:32;;;;;;;3.03;0.57;;;;;;;;;;5092094;28;20025;-64
2021/06/02 11:50:01;;;;;;;2.15;0.45;;;;;;;;;;5062103;28;20471;-65
2021/06/02 11:52:27;;;;;;;1.77;0.65;;;;;;;;;;5104623;28;20055;-63
2021/06/02 11:54:53;;;;;;;1.42;0.40;;;;;;;;;;5072785;28;20435;-63
2021/06/02 11:57:32;;;;;;;3.60;0.80;;;;;;;;;;5100959;27;20123;-63
2021/06/02 12:00:01;;;;;;;1.73;0.60;;;;;;;;;;5069313;28;20024;-63
2021/06/02 12:02:26;;;;;;;3.10;0.50;;;;;;;;;;5090192;28;20024;-64
2021/06/02 12:04:52;;;;;;;2.22;0.60;;;;;;;;;;5072652;28;20108;-64
2021/06/02 12:07:20;;;;;;;2.25;0.60;;;;;;;;;;5071098;28;20028;-64
2021/06/02 12:09:51;;;;;;;3.97;0.82;;;;;;;;;;5070647;28;20182;-64
2021/06/02 12:12:17;;;;;;;1.15;0.50;;;;;;;;;;5077250;28;20025;-62
2021/06/02 12:14:42;;;;;;;2.22;0.57;;;;;;;;;;5064146;28;20028;-63
2021/06/02 12:17:08;;;;;;;2.05;0.88;;;;;;;;;;5064761;28;20048;-62
2021/06/02 12:19:34;;;;;;;5.13;0.50;;;;;;;;;;5086031;28;20009;-64
2021/06/02 12:22:09;;;;;;;3.10;0.52;;;;;;;;;;5116663;27;20494;-64
2021/06/02 12:24:35;;;;;;;2.28;0.60;;;;;;;;;;5057044;28;20028;-64
2021/06/02 12:27:01;;;;;;;2.47;0.50;;;;;;;;;;5070328;28;20008;-63
2021/06/02 12:29:30;;;;;;;4.25;0.60;;;;;;;;;;5091954;28;20031;-64
2021/06/02 12:31:58;;;;;;;2.90;0.60;;;;;;;;;;5063416;28;20158;-63
2021/06/02 12:34:26;;;;;;;3.20;0.60;;;;;;;;;;5070440;28;20004;-63
2021/06/02 12:36:53;;;;;;;6.25;0.60;;;;;;;;;;5062022;28;20308;-64
2021/06/02 12:39:19;;;;;;;1.23;0.60;;;;;;;;;;5067153;28;20131;-64
2021/06/02 12:41:46;;;;;;;2.35;0.50;;;;;;;;;;5069583;28;20032;-64
2021/06/02 12:44:11;;;;;;;1.95;0.52;;;;;;;;;;5104496;28;20024;-64
2021/06/02 12:46:37;;;;;;;5.07;0.60;;;;;;;;;;5069856;28;20020;-63
2021/06/02 12:49:09;;;;;;;3.67;0.70;;;;;;;;;;5068793;28;20044;-63
2021/06/02 12:51:35;;;;;;;2.13;0.70;;;;;;;;;;5071848;28;20019;-63
2021/06/02 12:54:01;;;;;;;1.60;0.82;;;;;;;;;;5071761;28;20384;-63
2021/06/02 12:56:26;;;;;;;1.38;0.50;;;;;;;;;;5069190;28;20449;-63
2021/06/02 12:58:53;;;;;;;2.75;0.73;;;;;;;;;;5069930;28;20464;-64
2021/06/02 13:01:19;;;;;;;1.15;0.50;;;;;;;;;;5074482;28;20021;-64
2021/06/02 13:03:52;;;;;;;3.42;0.80;;;;;;;;;;5071887;28;20024;-63
2021/06/02 13:06:17;;;;;;;1.38;0.40;;;;;;;;;;5071563;28;20028;-63
2021/06/02 13:08:43;;;;;;;3.70;1.38;;;;;;;;;;5066778;28;20859;-64
2021/06/02 13:11:11;;;;;;;1.05;0.45;;;;;;;;;;5071224;28;20013;-64
2021/06/02 13:13:36;;;;;;;2.47;0.70;;;;;;;;;;5070342;28;20115;-64
2021/06/02 13:16:04;;;;;;;0.93;0.80;;;;;;;;;;5071420;28;20154;-64
2021/06/02 13:18:30;;;;;;;2.50;0.57;;;;;;;;;;5066726;28;20111;-64
2021/06/02 13:20:56;;;;;;;4.47;0.77;;;;;;;;;;5071074;28;20483;-64
2021/06/02 13:23:21;;;;;;;3.33;0.70;;;;;;;;;;5072948;28;20091;-64
2021/06/02 13:25:57;;;;;;;5.53;0.90;;;;;;;;;;5074125;28;20499;-65
2021/06/02 13:28:23;;;;;;;3.28;1.30;;;;;;;;;;5072626;28;20031;-65
2021/06/02 13:30:50;;;;;;;1.90;0.95;;;;;;;;;;5072304;28;20032;-64
2021/06/02 13:33:15;;;;;;;1.83;1.17;;;;;;;;;;5069244;28;20099;-64
2021/06/02 13:35:42;;;;;;;1.55;0.80;;;;;;;;;;5071154;28;20103;-63
2021/06/02 13:38:07;;;;;;;2.55;1.17;;;;;;;;;;5107903;27;20024;-64
2021/06/02 13:40:46;;;;;;;3.50;1.00;;;;;;;;;;5061784;28;20017;-64
2021/06/02 13:43:16;;;;;;;3.58;1.10;;;;;;;;;;5081928;28;20023;-64
2021/06/02 13:45:50;;;;;;;3.30;0.98;;;;;;;;;;5075963;28;20013;-64
2021/06/02 13:48:30;;;;;;;2.45;1.10;;;;;;;;;;5079986;28;20015;-63
2021/06/02 13:51:15;;;;;;;1.45;0.85;;;;;;;;;;5072328;28;20036;-63
2021/06/02 13:53:40;;;;;;;;;;;;;;;;;;5074060;28;20103;-64
2021/06/02 13:56:07;;;;;;;1.70;0.80;;;;;;;;;;5073146;28;19944;-64
2021/06/02 13:58:33;;;;;;;4.03;1.33;;;;;;;;;;5070126;28;20116;-64
2021/06/02 14:00:58;;;;;;;3.27;1.00;;;;;;;;;;5087919;28;20106;-64
2021/06/02 14:03:23;;;;;;;3.63;1.37;;;;;;;;;;5092014;28;20261;-64
2021/06/02 14:05:48;;;;;;;1.90;0.90;;;;;;;;;;5076743;28;20051;-64
2021/06/02 14:08:13;;;;;;;4.38;1.35;;;;;;;;;;5070072;28;20028;-64
2021/06/02 14:10:39;;;;;;;2.10;1.40;;;;;;;;;;5074372;28;20024;-64
2021/06/02 14:13:04;;;;;;;2.40;1.10;;;;;;;;;;5073283;28;20009;-65
2021/06/02 14:15:29;;;;;;;1.80;1.10;;;;;;;;;;5073961;28;20020;-65
2021/06/02 14:17:54;;;;;;;3.13;1.25;;;;;;;;;;5071719;28;20340;-65
2021/06/02 14:20:20;;;;;;;2.57;1.40;;;;;;;;;;5074713;28;20066;-64
2021/06/02 14:22:45;;;;;;;3.33;1.65;;;;;;;;;;5086274;28;20258;-64
2021/06/02 14:25:16;;;;;;;3.55;1.27;;;;;;;;;;5075232;28;20024;-65
2021/06/02 14:27:41;;;;;;;3.08;1.15;;;;;;;;;;5064192;28;20102;-64
2021/06/02 14:30:07;;;;;;;4.25;1.45;;;;;;;;;;5078405;28;20111;-64
2021/06/02 14:32:32;;;;;;;1.90;1.05;;;;;;;;;;5082005;28;20487;-66
2021/06/02 14:34:57;;;;;;;5.07;1.10;;;;;;;;;;5071969;28;20553;-64
2021/06/02 14:37:26;;;;;;;3.70;1.30;;;;;;;;;;5059476;28;20693;-66
2021/06/02 14:39:53;;;;;;;1.60;1.15;;;;;;;;;;5059266;28;20503;-64
2021/06/02 14:42:19;;;;;;;2.20;1.00;;;;;;;;;;5074879;28;20031;-64
2021/06/02 14:44:45;;;;;;;3.28;0.95;;;;;;;;;;5082298;28;20221;-64
2021/06/02 14:47:10;;;;;;;2.70;1.13;;;;;;;;;;5085282;28;20113;-64
2021/06/02 14:49:35;;;;;;;3.40;0.70;;;;;;;;;;5093269;28;20020;-64
2021/06/02 14:52:01;;;;;;;1.10;1.00;;;;;;;;;;5075366;28;20383;-64
2021/06/02 14:54:26;;;;;;;2.78;0.88;;;;;;;;;;5072043;28;20280;-65
2021/06/02 14:56:52;;;;;;;1.80;1.00;;;;;;;;;;5067035;28;20316;-65
2021/06/02 14:59:18;;;;;;;1.50;1.10;;;;;;;;;;5068232;28;20020;-65